createdAt,value
2018-12-14T00:00:30.295Z,91.25
2018-12-14T00:03:04.736Z,93.25
2018-12-14T00:05:38.657Z,96.50
2018-12-14T00:08:10.276Z,96.50
2018-12-14T00:10:42.148Z,96.75
2018-12-14T00:13:13.789Z,97.75
2018-12-14T00:15:46.475Z,91.75
2018-12-14T00:18:18.612Z,98.75
2018-12-14T00:20:50.633Z,96.00
2018-12-14T00:23:22.383Z,91.50
2018-12-14T00:25:54.232Z,83.50
2018-12-14T00:28:25.990Z,85.00
2018-12-14T00:30:57.905Z,100.00
2018-12-14T00:33:29.954Z,89.25
2018-12-14T00:36:02.081Z,96.25
2018-12-14T00:38:34.181Z,97.75
2018-12-14T00:41:05.950Z,85.00
2018-12-14T00:43:37.995Z,97.75
2018-12-14T00:46:09.719Z,105.50
2018-12-14T00:48:41.974Z,98.00
2018-12-14T00:51:13.661Z,96.00
2018-12-14T00:53:45.605Z,101.75
2018-12-14T00:56:17.423Z,96.75
2018-12-14T00:58:49.737Z,93.75
2018-12-14T01:01:21.606Z,101.50
2018-12-14T01:03:53.330Z,92.25
2018-12-14T01:06:25.033Z,88.50
2018-12-14T01:08:56.866Z,99.50
2018-12-14T01:11:28.738Z,96.00
2018-12-14T01:14:00.611Z,101.50
2018-12-14T01:16:32.825Z,100.75
2018-12-14T01:19:10.756Z,97.50
2018-12-14T01:21:43.950Z,96.25
2018-12-14T01:24:16.110Z,100.25
2018-12-14T01:26:48.340Z,99.75
2018-12-14T01:29:20.046Z,108.25
2018-12-14T01:31:52.076Z,102.25
2018-12-14T01:34:23.790Z,101.75
2018-12-14T01:36:55.501Z,95.25
2018-12-14T01:39:27.315Z,101.75
2018-12-14T01:42:04.617Z,100.00
2018-12-14T01:44:33.037Z,98.50
2018-12-14T01:47:04.793Z,100.00
2018-12-14T01:49:36.979Z,89.25
2018-12-14T01:52:10.058Z,101.00
2018-12-14T01:54:41.919Z,91.75
2018-12-14T01:57:13.891Z,103.25
2018-12-14T01:59:45.608Z,97.50
2018-12-14T02:02:18.689Z,107.00
2018-12-14T02:04:50.262Z,100.75
2018-12-14T02:07:22.074Z,103.25
2018-12-14T02:09:53.744Z,104.50
2018-12-14T02:12:25.396Z,97.25
2018-12-14T02:14:57.062Z,103.25
2018-12-14T02:17:28.974Z,111.75
2018-12-14T02:20:01.520Z,111.00
2018-12-14T02:22:35.464Z,114.25
2018-12-14T02:25:07.566Z,122.50
2018-12-14T02:27:39.114Z,106.75
2018-12-14T02:30:20.377Z,101.75
2018-12-14T02:32:52.330Z,114.50
2018-12-14T02:35:24.168Z,108.50
2018-12-14T02:37:57.004Z,124.75
2018-12-14T02:40:28.977Z,123.75
2018-12-14T02:43:00.810Z,118.50
2018-12-14T02:45:32.456Z,99.25
2018-12-14T02:48:04.233Z,116.25
2018-12-14T02:50:36.737Z,109.25
2018-12-14T02:53:09.219Z,107.75
2018-12-14T02:55:40.994Z,120.25
2018-12-14T02:58:13.166Z,108.75
2018-12-14T03:00:45.036Z,107.50
2018-12-14T03:03:16.692Z,111.75
2018-12-14T03:05:48.360Z,111.50
2018-12-14T03:08:20.232Z,111.25
2018-12-14T03:10:51.963Z,112.50
2018-12-14T03:13:23.912Z,109.25
2018-12-14T03:15:55.618Z,114.50
2018-12-14T03:18:28.757Z,121.00
2018-12-14T03:21:00.769Z,108.75
2018-12-14T03:23:33.438Z,111.25
2018-12-14T03:26:05.060Z,109.00
2018-12-14T03:28:36.528Z,110.50
2018-12-14T03:31:08.025Z,113.25
2018-12-14T03:33:40.211Z,126.75
2018-12-14T03:36:11.757Z,130.75
2018-12-14T03:38:43.466Z,119.50
2018-12-14T03:41:14.919Z,119.00
2018-12-14T03:43:46.526Z,116.75
2018-12-14T03:46:17.930Z,103.00
2018-12-14T03:48:49.669Z,112.75
2018-12-14T03:51:25.661Z,110.25
2018-12-14T03:53:57.257Z,114.00
2018-12-14T03:56:28.667Z,109.00
2018-12-14T03:59:00.306Z,109.50
2018-12-14T04:01:31.765Z,112.25
2018-12-14T04:04:03.448Z,107.25
2018-12-14T04:06:35.589Z,103.00
2018-12-14T04:09:10.450Z,106.00
2018-12-14T04:11:42.274Z,101.50
2018-12-14T04:14:13.818Z,103.50
2018-12-14T04:16:45.291Z,103.50
2018-12-14T04:19:16.864Z,99.25
2018-12-14T04:21:49.498Z,108.25
2018-12-14T04:24:21.076Z,101.75
2018-12-14T04:26:52.812Z,104.25
2018-12-14T04:29:24.517Z,101.75
2018-12-14T04:31:56.946Z,94.25
2018-12-14T04:34:28.625Z,104.00
2018-12-14T04:37:00.532Z,104.00
2018-12-14T04:39:32.650Z,99.25
2018-12-14T04:42:04.198Z,89.25
2018-12-14T04:44:36.186Z,90.50
2018-12-14T04:47:08.372Z,97.20
2018-12-14T04:49:41.561Z,92.20
2018-12-14T04:52:14.158Z,91.60
2018-12-14T04:54:46.081Z,92.20
2018-12-14T04:57:17.606Z,89.00
2018-12-14T04:59:50.284Z,85.80
2018-12-14T05:02:22.735Z,84.60
2018-12-14T05:04:57.043Z,91.20
2018-12-14T05:07:28.599Z,82.80
2018-12-14T05:10:02.569Z,88.60
2018-12-14T05:12:34.966Z,86.60
2018-12-14T05:15:07.270Z,91.80
2018-12-14T05:17:42.011Z,81.60
2018-12-14T05:20:16.620Z,93.60
2018-12-14T05:22:48.599Z,88.60
2018-12-14T05:25:24.893Z,85.60
2018-12-14T05:27:57.346Z,86.80
2018-12-14T05:30:29.398Z,87.00
2018-12-14T05:33:06.678Z,81.40
2018-12-14T05:35:42.110Z,86.20
2018-12-14T05:38:19.332Z,85.40
2018-12-14T05:40:50.959Z,82.40
2018-12-14T05:43:22.428Z,79.00
2018-12-14T05:45:54.129Z,83.00
2018-12-14T05:48:26.896Z,74.00
2018-12-14T05:51:12.674Z,79.20
2018-12-14T05:53:46.153Z,78.00
2018-12-14T05:56:17.867Z,61.80
2018-12-14T05:58:53.587Z,72.00
2018-12-14T06:01:36.442Z,70.60
2018-12-14T06:04:09.501Z,71.80
2018-12-14T06:06:41.679Z,64.40
2018-12-14T06:09:14.834Z,69.80
2018-12-14T06:11:46.689Z,60.00
2018-12-14T06:14:18.146Z,66.40
2018-12-14T06:16:49.696Z,70.40
2018-12-14T06:19:21.305Z,68.00
2018-12-14T06:21:53.809Z,65.00
2018-12-14T06:24:25.942Z,69.00
2018-12-14T06:26:57.715Z,61.40
2018-12-14T06:29:29.212Z,66.40
2018-12-14T06:32:04.827Z,59.60
2018-12-14T06:34:36.241Z,62.20
2018-12-14T06:37:09.856Z,60.40
2018-12-14T06:39:43.900Z,57.80
2018-12-14T06:42:16.505Z,62.40
2018-12-14T06:44:49.122Z,64.00
2018-12-14T06:47:26.037Z,60.80
2018-12-14T06:50:01.374Z,67.00
2018-12-14T06:52:34.436Z,59.80
2018-12-14T06:55:09.384Z,65.00
2018-12-14T06:57:41.293Z,58.20
2018-12-14T07:00:12.871Z,54.60
2018-12-14T07:02:45.164Z,61.20
2018-12-14T07:05:16.782Z,64.00
2018-12-14T07:07:48.556Z,64.00
2018-12-14T07:10:20.609Z,58.00
2018-12-14T07:12:52.679Z,60.00
2018-12-14T07:15:24.404Z,57.00
2018-12-14T07:17:56.471Z,53.60
2018-12-14T07:20:27.999Z,54.40
2018-12-14T07:22:59.736Z,60.60
2018-12-14T07:25:31.618Z,47.00
2018-12-14T07:28:03.227Z,58.00
2018-12-14T07:30:34.729Z,57.40
2018-12-14T07:33:06.517Z,57.00
2018-12-14T07:35:41.832Z,57.60
2018-12-14T07:38:12.617Z,51.20
2018-12-14T07:40:44.180Z,50.60
2018-12-14T07:43:16.033Z,45.00
2018-12-14T07:45:47.726Z,50.00
2018-12-14T07:48:19.408Z,52.80
2018-12-14T07:50:50.880Z,46.80
2018-12-14T07:53:22.407Z,45.20
2018-12-14T07:55:54.329Z,47.40
2018-12-14T07:58:25.931Z,46.20
2018-12-14T08:00:57.424Z,43.00
2018-12-14T08:03:29.088Z,44.60
2018-12-14T08:06:00.503Z,44.00
2018-12-14T08:08:31.866Z,44.60
2018-12-14T08:11:03.286Z,46.20
2018-12-14T08:13:35.109Z,45.00
2018-12-14T08:16:06.471Z,47.40
2018-12-14T08:18:38.139Z,44.80
2018-12-14T08:21:10.655Z,44.00
2018-12-14T08:23:44.710Z,45.40
2018-12-14T08:26:16.503Z,43.60
2018-12-14T08:28:48.159Z,41.60
2018-12-14T08:31:20.540Z,41.60
2018-12-14T08:33:54.041Z,46.00
2018-12-14T08:36:25.607Z,41.00
2018-12-14T08:38:57.232Z,37.80
2018-12-14T08:41:28.673Z,43.20
2018-12-14T08:44:00.321Z,79.60
2018-12-14T08:46:31.888Z,111.00
2018-12-14T08:49:04.589Z,59.00
2018-12-14T08:51:37.023Z,86.40
2018-12-14T08:54:13.936Z,65.60
2018-12-14T08:56:46.366Z,68.40
2018-12-14T08:59:18.243Z,58.00
2018-12-14T09:01:49.970Z,55.40
2018-12-14T09:04:23.464Z,52.40
2018-12-14T09:20:11.791Z,45.00
2018-12-14T09:22:44.370Z,41.60
2018-12-14T09:25:16.283Z,40.60
2018-12-14T09:27:48.510Z,44.80
2018-12-14T09:30:20.551Z,45.20
2018-12-14T09:32:52.933Z,43.80
2018-12-14T09:35:24.637Z,41.00
2018-12-14T09:37:56.472Z,41.20
2018-12-14T09:40:28.357Z,43.00
2018-12-14T09:43:00.131Z,40.40
2018-12-14T09:48:17.438Z,38.20
2018-12-14T09:50:49.298Z,40.60
2018-12-14T09:53:21.058Z,40.60
2018-12-14T09:55:52.798Z,40.80
2018-12-14T09:58:25.070Z,39.80
2018-12-14T10:00:59.113Z,42.80
2018-12-14T10:03:31.716Z,40.40
2018-12-14T10:06:05.445Z,41.40
2018-12-14T10:08:37.158Z,40.80
2018-12-14T10:11:09.795Z,42.20
2018-12-14T10:13:42.250Z,39.60
2018-12-14T10:16:15.160Z,40.20
2018-12-14T10:18:46.968Z,42.20
2018-12-14T10:21:18.678Z,40.00
2018-12-14T10:23:53.833Z,39.60
2018-12-14T10:26:26.398Z,41.40
2018-12-14T10:28:58.800Z,42.80
2018-12-14T10:31:31.618Z,43.20
2018-12-14T10:34:04.997Z,39.80
2018-12-14T10:36:42.840Z,40.20
2018-12-14T10:39:15.590Z,41.20
2018-12-14T10:41:47.119Z,42.00
2018-12-14T10:44:19.481Z,39.80
2018-12-14T10:46:50.934Z,35.60
2018-12-14T10:49:22.528Z,41.40
2018-12-14T10:51:57.886Z,39.80
2018-12-14T10:54:29.634Z,41.80
2018-12-14T10:57:01.685Z,36.40
2018-12-14T10:59:34.585Z,41.60
2018-12-14T11:02:16.874Z,37.20
2018-12-14T11:04:53.254Z,40.60
2018-12-14T11:07:24.880Z,40.20
2018-12-14T11:09:56.227Z,40.80
2018-12-14T11:12:27.792Z,40.60
2018-12-14T11:15:00.213Z,41.20
2018-12-14T11:17:34.806Z,34.20
2018-12-14T11:20:06.681Z,39.40
2018-12-14T11:22:38.279Z,42.20
2018-12-14T11:25:10.435Z,40.20
2018-12-14T11:27:49.097Z,40.60
2018-12-14T11:30:25.256Z,39.40
2018-12-14T11:32:57.978Z,40.20
2018-12-14T11:35:32.744Z,43.20
2018-12-14T11:38:08.748Z,40.80
2018-12-14T11:40:52.481Z,43.20
2018-12-14T11:43:35.288Z,40.20
2018-12-14T11:46:12.030Z,43.40
2018-12-14T11:48:47.234Z,44.20
2018-12-14T11:51:28.141Z,43.40
2018-12-14T11:54:02.071Z,43.60
2018-12-14T11:56:40.127Z,47.60
2018-12-14T11:59:11.956Z,44.20
2018-12-14T12:01:44.499Z,43.80
2018-12-14T12:04:16.596Z,47.40
2018-12-14T12:06:48.118Z,46.40
2018-12-14T12:09:21.404Z,53.40
2018-12-14T12:11:54.241Z,49.00
2018-12-14T12:14:27.048Z,51.00
2018-12-14T12:16:59.241Z,51.20
2018-12-14T12:19:31.264Z,53.60
2018-12-14T12:22:03.185Z,50.00
2018-12-14T12:24:35.851Z,55.40
2018-12-14T12:27:07.824Z,49.20
2018-12-14T12:29:39.731Z,56.80
2018-12-14T12:32:12.087Z,51.00
2018-12-14T12:34:44.001Z,54.80
2018-12-14T12:37:15.528Z,58.80
2018-12-14T12:39:47.249Z,61.80
2018-12-14T12:42:18.772Z,66.60
2018-12-14T12:44:50.915Z,70.60
2018-12-14T12:47:22.664Z,70.20
2018-12-14T12:49:54.236Z,67.20
2018-12-14T12:52:26.424Z,69.40
2018-12-14T12:54:58.589Z,77.80
2018-12-14T12:57:31.085Z,75.00
2018-12-14T13:00:03.362Z,89.80
2018-12-14T13:02:35.614Z,80.40
2018-12-14T13:05:07.595Z,86.20
2018-12-14T13:07:39.670Z,84.20
2018-12-14T13:10:11.525Z,83.80
2018-12-14T13:12:43.481Z,85.00
2018-12-14T13:15:15.210Z,82.40
2018-12-14T13:17:47.074Z,86.00
2018-12-14T13:20:18.670Z,111.25
2018-12-14T13:22:50.105Z,173.00
2018-12-14T13:25:21.639Z,198.00
2018-12-14T13:27:53.115Z,147.00
2018-12-14T13:30:24.756Z,119.25
2018-12-14T13:32:57.006Z,107.75
2018-12-14T13:35:31.587Z,85.80
2018-12-14T13:38:03.143Z,66.40
2018-12-14T13:40:37.228Z,75.20
2018-12-14T13:43:09.823Z,67.40
2018-12-14T13:45:41.481Z,69.60
2018-12-14T13:48:13.044Z,63.80
2018-12-14T13:50:44.608Z,66.00
2018-12-14T13:53:16.057Z,75.00
2018-12-14T13:55:47.598Z,74.80
2018-12-14T13:58:27.623Z,85.00
2018-12-14T14:00:59.340Z,94.40
2018-12-14T14:03:33.443Z,84.20
2018-12-14T14:06:04.994Z,90.40
2018-12-14T14:08:39.730Z,89.20
2018-12-14T14:11:20.133Z,87.60
2018-12-14T14:13:51.712Z,86.20
2018-12-14T14:16:23.275Z,92.40
2018-12-14T14:18:54.906Z,86.60
2018-12-14T14:21:30.207Z,91.00
2018-12-14T14:24:01.738Z,93.80
2018-12-14T14:26:33.415Z,83.40
2018-12-14T14:29:05.924Z,89.60
2018-12-14T14:31:38.641Z,87.80
2018-12-14T14:34:14.316Z,84.60
2018-12-14T14:36:49.076Z,86.60
2018-12-14T14:39:23.829Z,98.80
2018-12-14T14:41:55.499Z,95.00
2018-12-14T14:44:30.426Z,97.20
2018-12-14T14:47:02.183Z,94.80
2018-12-14T14:49:33.844Z,94.20
2018-12-14T14:52:05.621Z,88.80
2018-12-14T14:54:39.879Z,103.75
2018-12-14T14:57:11.487Z,99.60
2018-12-14T14:59:42.967Z,98.20
2018-12-14T15:02:14.598Z,90.80
2018-12-14T15:04:46.530Z,84.00
2018-12-14T15:07:18.308Z,85.80
2018-12-14T15:09:49.874Z,85.80
2018-12-14T15:12:21.505Z,89.00
2018-12-14T15:14:55.071Z,84.80
2018-12-14T15:17:27.719Z,88.20
2018-12-14T15:19:59.359Z,85.00
2018-12-14T15:22:32.064Z,85.20
2018-12-14T15:25:03.523Z,95.60
2018-12-14T15:27:36.120Z,94.80
2018-12-14T15:30:08.656Z,100.20
2018-12-14T15:32:41.370Z,100.40
2018-12-14T15:35:14.730Z,102.20
2018-12-14T15:37:58.280Z,97.00
2018-12-14T15:40:37.102Z,94.80
2018-12-14T15:43:08.812Z,105.00
2018-12-14T15:45:40.488Z,101.00
2018-12-14T15:48:12.168Z,102.25
2018-12-14T15:50:44.897Z,102.00
2018-12-14T15:53:20.215Z,100.50
2018-12-14T15:55:52.121Z,100.50
2018-12-14T15:58:29.957Z,100.60
2018-12-14T16:01:02.564Z,96.80
2018-12-14T16:03:43.652Z,103.25
2018-12-14T16:06:16.078Z,101.75
2018-12-14T16:08:52.264Z,96.80
2018-12-14T16:11:25.120Z,99.00
2018-12-14T16:14:02.758Z,96.40
2018-12-14T16:16:36.015Z,94.00
2018-12-14T16:19:08.929Z,98.00
2018-12-14T16:21:43.863Z,99.40
2018-12-14T16:24:15.540Z,99.60
2018-12-14T16:26:47.281Z,99.75
2018-12-14T16:29:31.260Z,93.75
2018-12-14T16:32:04.068Z,100.00
2018-12-14T16:34:37.168Z,99.00
2018-12-14T16:37:09.523Z,99.00
2018-12-14T16:39:43.044Z,99.20
2018-12-14T16:42:14.543Z,99.25
2018-12-14T16:44:46.263Z,94.40
2018-12-14T16:47:17.650Z,107.75
2018-12-14T16:49:49.352Z,97.00
2018-12-14T16:55:00.459Z,94.00
2018-12-14T16:57:31.757Z,95.40
2018-12-14T17:00:07.111Z,86.40
2018-12-14T17:02:41.858Z,91.60
2018-12-14T17:05:16.195Z,87.40
2018-12-14T17:07:48.543Z,91.60
2018-12-14T17:10:23.497Z,94.20
2018-12-14T17:12:55.141Z,92.00
2018-12-14T17:15:33.427Z,89.00
2018-12-14T17:18:05.342Z,88.20
2018-12-14T17:20:37.117Z,86.20
2018-12-14T17:23:13.625Z,87.20
2018-12-14T17:25:45.327Z,82.00
2018-12-14T17:28:17.048Z,86.40
2018-12-14T17:30:49.222Z,81.60
2018-12-14T17:33:35.915Z,81.20
2018-12-14T17:36:18.771Z,81.40
2018-12-14T17:38:55.820Z,75.80
2018-12-14T17:41:38.710Z,78.60
2018-12-14T17:44:15.263Z,77.00
2018-12-14T17:46:50.444Z,75.40
2018-12-14T17:49:25.964Z,74.00
2018-12-14T17:51:58.677Z,71.60
2018-12-14T17:54:33.468Z,65.60
2018-12-14T17:57:07.411Z,70.20
2018-12-14T17:59:40.901Z,74.20
2018-12-14T18:02:13.632Z,71.80
2018-12-14T18:04:51.008Z,66.60
2018-12-14T18:07:22.618Z,64.40
2018-12-14T18:09:59.345Z,72.20
2018-12-14T18:12:31.150Z,71.60
2018-12-14T18:15:02.619Z,75.00
2018-12-14T18:17:34.469Z,72.80
2018-12-14T18:20:10.584Z,65.20
2018-12-14T18:22:47.871Z,65.00
2018-12-14T18:25:20.786Z,67.60
2018-12-14T18:27:53.503Z,64.20
2018-12-14T18:30:25.114Z,65.80
2018-12-14T18:33:00.437Z,71.40
2018-12-14T18:35:36.129Z,64.80
2018-12-14T18:38:11.103Z,67.40
2018-12-14T18:40:43.025Z,71.80
2018-12-14T18:43:14.741Z,69.20
2018-12-14T18:45:53.400Z,67.00
2018-12-14T18:48:29.605Z,66.00
2018-12-14T18:51:04.394Z,76.00
2018-12-14T18:53:35.970Z,69.20
2018-12-14T18:56:10.703Z,74.60
2018-12-14T18:58:47.005Z,74.80
2018-12-14T19:01:23.703Z,62.80
2018-12-14T19:04:02.484Z,70.20
2018-12-14T19:06:35.083Z,74.60
2018-12-14T19:09:07.540Z,70.40
2018-12-14T19:11:41.946Z,70.40
2018-12-14T19:14:13.672Z,69.20
2018-12-14T19:16:52.133Z,71.20
2018-12-14T19:19:23.695Z,63.20
2018-12-14T19:22:02.203Z,62.40
2018-12-14T19:24:35.085Z,67.60
2018-12-14T19:27:08.690Z,69.80
2018-12-14T19:29:43.815Z,69.60
2018-12-14T19:32:15.354Z,63.00
2018-12-14T19:34:47.423Z,65.80
2018-12-14T19:37:24.200Z,67.80
2018-12-14T19:39:56.145Z,69.00
2018-12-14T19:42:35.557Z,67.40
2018-12-14T19:45:14.405Z,62.60
2018-12-14T19:47:46.211Z,74.00
2018-12-14T19:50:17.780Z,68.00
2018-12-14T19:52:55.296Z,68.80
2018-12-14T19:55:30.544Z,73.80
2018-12-14T19:58:04.091Z,66.80
2018-12-14T20:00:38.846Z,65.80
2018-12-14T20:03:10.423Z,56.00
2018-12-14T20:05:45.313Z,68.60
2018-12-14T20:08:17.865Z,67.20
2018-12-14T20:10:49.592Z,59.80
2018-12-14T20:13:26.832Z,65.80
2018-12-14T20:15:58.435Z,64.00
2018-12-14T20:18:35.292Z,70.00
2018-12-14T20:21:22.527Z,62.20
2018-12-14T20:23:57.517Z,69.20
2018-12-14T20:26:31.215Z,65.40
2018-12-14T20:29:03.744Z,72.60
2018-12-14T20:31:37.413Z,57.00
2018-12-14T20:34:11.912Z,66.40
2018-12-14T20:36:46.736Z,66.80
2018-12-14T20:39:18.644Z,67.20
2018-12-14T20:41:50.385Z,65.80
2018-12-14T20:44:24.647Z,62.20
2018-12-14T20:46:56.296Z,66.80
2018-12-14T20:49:29.682Z,69.80
2018-12-14T20:52:01.671Z,60.60
2018-12-14T20:54:33.308Z,67.40
2018-12-14T20:57:07.511Z,61.00
2018-12-14T20:59:39.154Z,63.40
2018-12-14T21:02:14.318Z,58.00
2018-12-14T21:04:48.000Z,65.40
2018-12-14T21:07:20.787Z,60.40
2018-12-14T21:09:57.958Z,72.20
2018-12-14T21:12:31.487Z,67.80
2018-12-14T21:15:04.524Z,66.80
2018-12-14T21:17:39.423Z,64.00
2018-12-14T21:20:10.958Z,73.00
2018-12-14T21:22:47.548Z,70.20
2018-12-14T21:25:24.406Z,72.20
2018-12-14T21:27:56.131Z,67.80
2018-12-14T21:30:33.874Z,74.60
2018-12-14T21:33:08.801Z,70.00
2018-12-14T21:35:41.767Z,66.20
2018-12-14T21:38:17.274Z,67.60
2018-12-14T21:40:53.919Z,64.20
2018-12-14T21:43:26.527Z,68.20
2018-12-14T21:45:58.627Z,59.00
2018-12-14T21:48:30.320Z,62.40
2018-12-14T21:51:01.978Z,65.40
2018-12-14T21:53:37.221Z,71.20
2018-12-14T21:56:13.413Z,61.00
2018-12-14T21:58:45.101Z,69.00
2018-12-14T22:01:20.235Z,70.20
2018-12-14T22:03:51.821Z,61.60
2018-12-14T22:06:28.442Z,62.00
2018-12-14T22:09:00.055Z,67.80
2018-12-14T22:11:37.042Z,67.00
2018-12-14T22:14:09.598Z,68.80
2018-12-14T22:16:45.516Z,70.60
2018-12-14T22:19:17.289Z,66.40
2018-12-14T22:21:48.847Z,62.00
2018-12-14T22:24:21.635Z,60.40
2018-12-14T22:27:02.923Z,57.20
2018-12-14T22:29:40.747Z,64.60
2018-12-14T22:32:12.268Z,69.20
2018-12-14T22:34:47.987Z,69.60
2018-12-14T22:37:23.388Z,61.60
2018-12-14T22:40:03.045Z,62.20
2018-12-14T22:42:43.355Z,67.00
2018-12-14T22:45:27.728Z,66.40
2018-12-14T22:48:15.692Z,65.00
2018-12-14T22:50:57.154Z,66.40
2018-12-14T22:53:45.989Z,61.80
2018-12-14T22:56:23.361Z,61.80
2018-12-14T22:58:55.848Z,64.40
2018-12-14T23:01:32.008Z,59.80
2018-12-14T23:04:10.438Z,64.80
2018-12-14T23:06:42.344Z,61.60
2018-12-14T23:09:18.754Z,59.60
2018-12-14T23:11:51.379Z,64.20
2018-12-14T23:14:26.604Z,67.60
2018-12-14T23:16:58.412Z,66.00
2018-12-14T23:19:30.416Z,66.00
2018-12-14T23:22:02.154Z,61.80
2018-12-14T23:24:33.715Z,65.80
2018-12-14T23:27:09.199Z,69.20
2018-12-14T23:29:45.465Z,73.00
2018-12-14T23:32:20.668Z,69.20
2018-12-14T23:34:52.369Z,71.40
2018-12-14T23:37:30.534Z,66.80
2018-12-14T23:40:01.998Z,62.60
2018-12-14T23:42:33.681Z,56.80
2018-12-14T23:45:16.216Z,66.20
2018-12-14T23:47:47.795Z,64.80
2018-12-14T23:50:20.861Z,71.60
2018-12-14T23:52:59.876Z,62.60
2018-12-14T23:55:31.246Z,66.60
2018-12-14T23:58:07.474Z,61.40
